createdAt,value
2018-08-12T00:00:30.831Z,0
2018-08-12T00:01:30.741Z,0
2018-08-12T00:02:30.715Z,0
2018-08-12T00:03:30.713Z,0
2018-08-12T00:04:30.749Z,0
2018-08-12T00:05:30.880Z,0
2018-08-12T00:06:30.812Z,0
2018-08-12T00:07:30.741Z,0
2018-08-12T00:08:30.837Z,0
2018-08-12T00:09:30.803Z,0
2018-08-12T00:10:30.845Z,0
2018-08-12T00:11:30.718Z,0
2018-08-12T00:12:30.815Z,0
2018-08-12T00:13:30.762Z,0
2018-08-12T00:14:30.841Z,0
2018-08-12T00:15:30.813Z,0
2018-08-12T00:16:30.805Z,0
2018-08-12T00:17:30.788Z,0
2018-08-12T00:18:30.811Z,0
2018-08-12T00:19:30.789Z,0
2018-08-12T00:20:30.790Z,0
2018-08-12T00:21:30.731Z,0
2018-08-12T00:22:30.752Z,0
2018-08-12T00:23:30.751Z,0
2018-08-12T00:24:30.846Z,0
2018-08-12T00:25:30.693Z,0
2018-08-12T00:26:30.792Z,0
2018-08-12T00:27:30.679Z,0
2018-08-12T00:28:30.795Z,0
2018-08-12T00:29:30.682Z,0
2018-08-12T00:30:30.828Z,0
2018-08-12T00:31:30.668Z,0
2018-08-12T00:32:30.773Z,0
2018-08-12T00:33:30.678Z,0
2018-08-12T00:34:30.751Z,0
2018-08-12T00:35:30.826Z,0
2018-08-12T00:36:30.777Z,0
2018-08-12T00:37:30.842Z,0
2018-08-12T00:38:30.819Z,0
2018-08-12T00:39:30.838Z,0
2018-08-12T00:40:30.862Z,0
2018-08-12T00:41:30.840Z,0
2018-08-12T00:42:30.773Z,0
2018-08-12T00:43:30.783Z,0
2018-08-12T00:44:30.867Z,0
2018-08-12T00:45:30.809Z,0
2018-08-12T00:46:30.900Z,0
2018-08-12T00:47:30.880Z,0
2018-08-12T00:48:30.831Z,0
2018-08-12T00:49:30.807Z,0
2018-08-12T00:50:30.883Z,0
2018-08-12T00:51:30.885Z,0
2018-08-12T00:52:30.885Z,0
2018-08-12T00:53:30.886Z,0
2018-08-12T00:54:30.814Z,0
2018-08-12T00:55:30.886Z,0
2018-08-12T00:56:30.821Z,0
2018-08-12T00:57:30.888Z,0
2018-08-12T00:58:30.888Z,0
2018-08-12T00:59:30.820Z,0
2018-08-12T01:00:30.889Z,0
2018-08-12T01:01:30.825Z,0
2018-08-12T01:02:30.891Z,0
2018-08-12T01:03:30.823Z,0
2018-08-12T01:04:30.893Z,0
2018-08-12T01:05:30.771Z,0
2018-08-12T01:06:30.863Z,0
2018-08-12T01:07:30.840Z,0
2018-08-12T01:08:30.762Z,0
2018-08-12T01:09:30.779Z,0
2018-08-12T01:10:30.866Z,0
2018-08-12T01:11:30.802Z,0
2018-08-12T01:12:30.867Z,0
2018-08-12T01:13:30.802Z,0
2018-08-12T01:14:30.800Z,0
2018-08-12T01:15:30.890Z,0
2018-08-12T01:16:30.963Z,0
2018-08-12T01:17:30.806Z,0
2018-08-12T01:18:30.799Z,0
2018-08-12T01:19:30.870Z,0
2018-08-12T01:20:30.788Z,0
2018-08-12T01:21:30.808Z,0
2018-08-12T01:22:30.806Z,0
2018-08-12T01:23:30.852Z,0
2018-08-12T01:24:30.809Z,0
2018-08-12T01:25:30.907Z,0
2018-08-12T01:26:30.868Z,0
2018-08-12T01:27:30.849Z,0
2018-08-12T01:28:30.930Z,0
2018-08-12T01:29:30.844Z,0
2018-08-12T01:30:30.911Z,0
2018-08-12T01:31:30.912Z,0
2018-08-12T01:32:30.841Z,0
2018-08-12T01:33:30.807Z,0
2018-08-12T01:34:30.914Z,0
2018-08-12T01:35:30.842Z,0
2018-08-12T01:36:30.917Z,0
2018-08-12T01:37:30.921Z,0
2018-08-12T01:38:30.918Z,0
2018-08-12T01:39:30.917Z,0
2018-08-12T01:40:30.919Z,0
2018-08-12T01:41:30.926Z,0
2018-08-12T01:42:30.921Z,0
2018-08-12T01:43:30.851Z,0
2018-08-12T01:44:30.856Z,0
2018-08-12T01:45:30.824Z,0
2018-08-12T01:46:30.806Z,0
2018-08-12T01:47:30.861Z,0
2018-08-12T01:48:30.914Z,0
2018-08-12T01:49:30.785Z,0
2018-08-12T01:50:30.891Z,0
2018-08-12T01:51:30.829Z,0
2018-08-12T01:52:30.833Z,0
2018-08-12T01:53:30.917Z,0
2018-08-12T01:54:30.811Z,0
2018-08-12T01:55:30.929Z,0
2018-08-12T01:56:30.859Z,0
2018-08-12T01:57:30.929Z,0
2018-08-12T01:58:30.868Z,0
2018-08-12T01:59:30.863Z,0
2018-08-12T02:00:30.932Z,0
2018-08-12T02:01:30.936Z,0
2018-08-12T02:02:30.867Z,0
2018-08-12T02:03:30.934Z,0
2018-08-12T02:04:30.869Z,0
2018-08-12T02:05:30.883Z,0
2018-08-12T02:06:30.817Z,0
2018-08-12T02:07:30.813Z,0
2018-08-12T02:08:30.837Z,0
2018-08-12T02:09:30.925Z,0
2018-08-12T02:10:30.885Z,0
2018-08-12T02:11:30.906Z,0
2018-08-12T02:12:30.803Z,0
2018-08-12T02:13:30.824Z,0
2018-08-12T02:14:30.845Z,0
2018-08-12T02:15:30.876Z,0
2018-08-12T02:16:30.913Z,0
2018-08-12T02:17:30.845Z,0
2018-08-12T02:18:30.907Z,0
2018-08-12T02:19:30.919Z,0
2018-08-12T02:20:30.936Z,0
2018-08-12T02:21:30.937Z,0
2018-08-12T02:22:30.911Z,0
2018-08-12T02:23:30.848Z,0
2018-08-12T02:24:30.939Z,0
2018-08-12T02:25:30.949Z,0
2018-08-12T02:26:30.951Z,0
2018-08-12T02:27:30.954Z,0
2018-08-12T02:28:30.956Z,0
2018-08-12T02:29:30.953Z,0
2018-08-12T02:30:30.954Z,0
2018-08-12T02:31:30.890Z,0
2018-08-12T02:32:30.888Z,0
2018-08-12T02:33:30.890Z,0
2018-08-12T02:34:30.956Z,0
2018-08-12T02:35:30.907Z,0
2018-08-12T02:36:30.949Z,0
2018-08-12T02:37:30.837Z,0
2018-08-12T02:38:30.864Z,0
2018-08-12T02:39:30.820Z,0
2018-08-12T02:40:30.931Z,0
2018-08-12T02:41:30.865Z,0
2018-08-12T02:42:30.937Z,0
2018-08-12T02:43:30.865Z,0
2018-08-12T02:44:35.161Z,0
2018-08-12T02:45:30.899Z,0
2018-08-12T02:46:30.866Z,0
2018-08-12T02:47:30.870Z,0
2018-08-12T02:48:30.866Z,0
2018-08-12T02:49:30.960Z,0
2018-08-12T02:50:30.877Z,0
2018-08-12T02:51:30.936Z,0
2018-08-12T02:52:30.901Z,0
2018-08-12T02:53:30.938Z,0
2018-08-12T02:54:30.849Z,0
2018-08-12T02:55:30.874Z,0
2018-08-12T02:56:30.876Z,0
2018-08-12T02:57:30.878Z,0
2018-08-12T02:58:30.870Z,0
2018-08-12T02:59:30.936Z,0
2018-08-12T03:00:30.874Z,0
2018-08-12T03:01:30.942Z,0
2018-08-12T03:02:30.876Z,0
2018-08-12T03:03:30.874Z,0
2018-08-12T03:04:30.970Z,0
2018-08-12T03:05:30.945Z,0
2018-08-12T03:06:30.972Z,0
2018-08-12T03:07:30.843Z,0
2018-08-12T03:08:30.880Z,0
2018-08-12T03:09:30.878Z,0
2018-08-12T03:10:30.947Z,0
2018-08-12T03:11:30.951Z,0
2018-08-12T03:12:30.881Z,0
2018-08-12T03:13:30.887Z,0
2018-08-12T03:14:30.982Z,0
2018-08-12T03:15:30.929Z,0
2018-08-12T03:16:30.911Z,0
2018-08-12T03:17:30.863Z,0
2018-08-12T03:18:30.970Z,0
2018-08-12T03:19:30.950Z,0
2018-08-12T03:20:30.886Z,0
2018-08-12T03:21:30.887Z,0
2018-08-12T03:22:31.037Z,0
2018-08-12T03:23:30.956Z,0
2018-08-12T03:24:30.954Z,0
2018-08-12T03:25:30.990Z,0
2018-08-12T03:26:30.997Z,0
2018-08-12T03:27:30.998Z,0
2018-08-12T03:28:31.010Z,0
2018-08-12T03:29:30.928Z,0
2018-08-12T03:30:30.993Z,0
2018-08-12T03:31:30.999Z,0
2018-08-12T03:32:30.939Z,0
2018-08-12T03:33:31.000Z,0
2018-08-12T03:34:30.929Z,0
2018-08-12T03:35:30.998Z,0
2018-08-12T03:36:30.928Z,0
2018-08-12T03:37:31.000Z,0
2018-08-12T03:38:30.983Z,0
2018-08-12T03:39:31.000Z,0
2018-08-12T03:40:30.935Z,0
2018-08-12T03:41:31.003Z,0
2018-08-12T03:42:30.936Z,0
2018-08-12T03:43:31.004Z,0
2018-08-12T03:44:31.010Z,0
2018-08-12T03:45:31.004Z,0
2018-08-12T03:46:30.939Z,5
2018-08-12T03:47:31.008Z,5
2018-08-12T03:48:30.940Z,5
2018-08-12T03:49:30.889Z,5
2018-08-12T03:50:30.939Z,5
2018-08-12T03:51:30.938Z,5
2018-08-12T03:52:30.955Z,11
2018-08-12T03:53:31.014Z,11
2018-08-12T03:54:31.013Z,11
2018-08-12T03:55:30.949Z,11
2018-08-12T03:56:30.943Z,16
2018-08-12T03:57:31.026Z,16
2018-08-12T03:58:30.950Z,16
2018-08-12T03:59:31.017Z,22
2018-08-12T04:00:30.956Z,22
2018-08-12T04:01:31.050Z,28
2018-08-12T04:02:30.955Z,28
2018-08-12T04:03:30.949Z,33
2018-08-12T04:04:31.019Z,33
2018-08-12T04:05:30.968Z,39
2018-08-12T04:06:30.963Z,39
2018-08-12T04:07:30.890Z,45
2018-08-12T04:08:30.928Z,45
2018-08-12T04:09:30.989Z,50
2018-08-12T04:10:30.926Z,50
2018-08-12T04:11:30.952Z,56
2018-08-12T04:12:30.992Z,61
2018-08-12T04:13:30.930Z,67
2018-08-12T04:14:30.931Z,73
2018-08-12T04:15:30.911Z,78
2018-08-12T04:16:31.016Z,78
2018-08-12T04:17:30.886Z,84
2018-08-12T04:18:30.929Z,90
2018-08-12T04:19:31.017Z,95
2018-08-12T04:20:30.974Z,101
2018-08-12T04:21:31.018Z,106
2018-08-12T04:22:30.999Z,112
2018-08-12T04:23:30.893Z,118
2018-08-12T04:24:30.911Z,123
2018-08-12T04:25:30.962Z,129
2018-08-12T04:26:31.032Z,129
2018-08-12T04:27:31.035Z,135
2018-08-12T04:28:30.963Z,140
2018-08-12T04:29:31.039Z,146
2018-08-12T04:30:31.039Z,146
2018-08-12T04:31:31.004Z,151
2018-08-12T04:32:31.037Z,163
2018-08-12T04:33:30.964Z,163
2018-08-12T04:34:31.040Z,168
2018-08-12T04:35:30.898Z,180
2018-08-12T04:36:30.996Z,185
2018-08-12T04:37:30.951Z,185
2018-08-12T04:38:30.967Z,191
2018-08-12T04:39:30.950Z,196
2018-08-12T04:40:31.001Z,202
2018-08-12T04:41:30.968Z,208
2018-08-12T04:42:31.000Z,208
2018-08-12T04:43:30.937Z,213
2018-08-12T04:44:30.984Z,219
2018-08-12T04:45:30.973Z,219
2018-08-12T04:46:31.048Z,225
2018-08-12T04:47:30.933Z,230
2018-08-12T04:48:31.002Z,230
2018-08-12T04:49:31.055Z,230
2018-08-12T04:50:30.982Z,230
2018-08-12T04:51:31.051Z,236
2018-08-12T04:52:31.053Z,236
2018-08-12T04:53:30.977Z,247
2018-08-12T04:54:31.055Z,253
2018-08-12T04:55:31.054Z,253
2018-08-12T04:56:30.983Z,258
2018-08-12T04:57:30.979Z,264
2018-08-12T04:58:31.057Z,270
2018-08-12T04:59:30.978Z,281
2018-08-12T05:00:31.057Z,286
2018-08-12T05:01:31.058Z,298
2018-08-12T05:02:30.981Z,303
2018-08-12T05:03:30.987Z,315
2018-08-12T05:04:31.059Z,320
2018-08-12T05:05:31.060Z,331
2018-08-12T05:06:31.085Z,337
2018-08-12T05:07:31.062Z,343
2018-08-12T05:08:30.991Z,343
2018-08-12T05:09:31.061Z,348
2018-08-12T05:10:31.062Z,354
2018-08-12T05:11:30.998Z,360
2018-08-12T05:12:30.994Z,360
2018-08-12T05:13:31.067Z,360
2018-08-12T05:14:30.996Z,360
2018-08-12T05:15:31.036Z,360
2018-08-12T05:16:30.943Z,365
2018-08-12T05:17:30.930Z,376
2018-08-12T05:18:31.038Z,382
2018-08-12T05:19:31.011Z,388
2018-08-12T05:20:30.971Z,388
2018-08-12T05:21:30.995Z,393
2018-08-12T05:22:31.050Z,405
2018-08-12T05:23:30.973Z,421
2018-08-12T05:24:31.022Z,433
2018-08-12T05:25:31.075Z,444
2018-08-12T05:26:31.002Z,455
2018-08-12T05:27:31.077Z,461
2018-08-12T05:28:30.999Z,466
2018-08-12T05:29:31.076Z,472
2018-08-12T05:30:31.005Z,478
2018-08-12T05:31:31.080Z,472
2018-08-12T05:32:31.030Z,472
2018-08-12T05:33:31.082Z,478
2018-08-12T05:34:31.081Z,472
2018-08-12T05:35:31.012Z,489
2018-08-12T05:36:31.036Z,500
2018-08-12T05:37:31.084Z,500
2018-08-12T05:38:31.087Z,495
2018-08-12T05:39:31.014Z,500
2018-08-12T05:40:30.977Z,489
2018-08-12T05:41:31.121Z,489
2018-08-12T05:42:31.010Z,489
2018-08-12T05:43:31.090Z,495
2018-08-12T05:44:31.016Z,495
2018-08-12T05:45:31.089Z,506
2018-08-12T05:46:31.015Z,511
2018-08-12T05:47:31.134Z,523
2018-08-12T05:48:31.013Z,540
2018-08-12T05:49:31.111Z,556
2018-08-12T05:50:31.023Z,573
2018-08-12T05:51:31.202Z,663
2018-08-12T05:52:31.020Z,720
2018-08-12T05:53:31.095Z,658
2018-08-12T05:54:31.023Z,624
2018-08-12T05:55:31.095Z,635
2018-08-12T05:56:31.024Z,725
2018-08-12T05:57:31.096Z,759
2018-08-12T05:58:31.027Z,849
2018-08-12T05:59:31.101Z,860
2018-08-12T06:00:31.050Z,928
2018-08-12T06:01:31.100Z,866
2018-08-12T06:02:31.030Z,928
2018-08-12T06:03:31.103Z,1006
2018-08-12T06:04:31.028Z,1080
2018-08-12T06:05:31.033Z,1186
2018-08-12T06:06:30.982Z,1248
2018-08-12T06:07:31.059Z,1243
2018-08-12T06:08:30.981Z,1158
2018-08-12T06:09:30.982Z,1153
2018-08-12T06:10:31.068Z,1153
2018-08-12T06:11:31.054Z,1023
2018-08-12T06:12:31.054Z,1012
2018-08-12T06:13:31.074Z,1108
2018-08-12T06:14:31.057Z,1209
2018-08-12T06:15:31.012Z,1113
2018-08-12T06:16:31.112Z,1282
2018-08-12T06:17:31.097Z,1282
2018-08-12T06:18:31.115Z,1288
2018-08-12T06:19:31.042Z,1305
2018-08-12T06:20:31.114Z,1276
2018-08-12T06:21:31.052Z,1293
2018-08-12T06:22:31.119Z,1271
2018-08-12T06:23:31.118Z,1220
2018-08-12T06:24:31.112Z,1473
2018-08-12T06:25:31.117Z,1676
2018-08-12T06:26:31.043Z,1878
2018-08-12T06:27:31.045Z,1749
2018-08-12T06:28:31.116Z,1591
2018-08-12T06:30:31.049Z,1704
2018-08-12T06:31:31.203Z,1507
2018-08-12T06:32:31.042Z,1721
2018-08-12T06:33:31.122Z,1665
2018-08-12T06:34:31.136Z,1569
2018-08-12T06:35:31.124Z,1659
2018-08-12T06:36:31.036Z,1698
2018-08-12T06:37:31.090Z,1586
2018-08-12T06:38:31.002Z,1704
2018-08-12T06:39:31.069Z,1749
2018-08-12T06:40:31.011Z,1794
2018-08-12T06:41:30.990Z,1901
2018-08-12T06:42:31.029Z,1951
2018-08-12T06:43:31.093Z,1996
2018-08-12T06:44:31.100Z,1996
2018-08-12T06:45:31.010Z,2036
2018-08-12T06:46:31.062Z,2221
2018-08-12T06:47:31.133Z,2148
2018-08-12T06:48:31.132Z,2261
2018-08-12T06:49:31.082Z,2165
2018-08-12T06:50:31.133Z,2165
2018-08-12T06:51:31.061Z,2278
2018-08-12T06:52:31.064Z,2300
2018-08-12T06:53:31.138Z,1861
2018-08-12T06:54:31.136Z,2193
2018-08-12T06:55:31.063Z,2160
2018-08-12T06:56:31.138Z,2092
2018-08-12T06:57:31.063Z,1935
2018-08-12T06:58:31.141Z,2160
2018-08-12T06:59:31.072Z,2182
2018-08-12T07:00:31.176Z,2120
2018-08-12T07:01:31.072Z,2210
2018-08-12T07:02:31.136Z,2289
2018-08-12T07:03:31.068Z,2283
2018-08-12T07:04:31.143Z,2261
2018-08-12T07:05:31.073Z,2244
2018-08-12T07:06:31.146Z,2199
2018-08-12T07:07:31.079Z,2070
2018-08-12T07:08:31.099Z,1861
2018-08-12T07:09:31.073Z,1906
2018-08-12T07:10:31.150Z,1996
2018-08-12T07:11:31.102Z,2137
2018-08-12T07:12:31.149Z,2221
2018-08-12T07:13:31.076Z,2379
2018-08-12T07:14:31.184Z,2216
2018-08-12T07:15:31.152Z,2221
2018-08-12T07:16:31.107Z,2255
2018-08-12T07:17:31.175Z,2216
2018-08-12T07:18:31.081Z,2328
2018-08-12T07:19:31.153Z,2390
2018-08-12T07:20:31.155Z,2356
2018-08-12T07:21:31.086Z,2216
2018-08-12T07:22:31.118Z,2491
2018-08-12T07:23:31.157Z,2272
2018-08-12T07:24:31.085Z,2176
2018-08-12T07:25:31.082Z,2216
2018-08-12T07:26:31.162Z,2261
2018-08-12T07:27:31.071Z,2401
2018-08-12T07:28:31.098Z,2553
2018-08-12T07:29:31.161Z,2311
2018-08-12T07:30:31.161Z,2446
2018-08-12T07:31:31.169Z,2671
2018-08-12T07:32:31.163Z,2677
2018-08-12T07:33:31.083Z,2863
2018-08-12T07:34:31.092Z,2806
2018-08-12T07:35:31.165Z,2306
2018-08-12T07:36:31.126Z,2328
2018-08-12T07:37:31.045Z,2497
2018-08-12T07:38:31.197Z,2373
2018-08-12T07:39:31.150Z,2053
2018-08-12T07:40:31.135Z,2458
2018-08-12T07:41:31.137Z,2340
2018-08-12T07:42:31.048Z,2340
2018-08-12T07:43:31.045Z,2643
2018-08-12T07:44:31.044Z,2542
2018-08-12T07:45:31.158Z,2463
2018-08-12T07:46:31.138Z,2480
2018-08-12T07:47:31.128Z,2289
2018-08-12T07:48:31.034Z,2221
2018-08-12T07:49:31.053Z,2227
2018-08-12T07:50:31.154Z,2171
2018-08-12T07:51:31.075Z,2086
2018-08-12T07:52:31.101Z,2013
2018-08-12T07:53:31.037Z,2205
2018-08-12T07:54:31.086Z,2840
2018-08-12T07:55:31.101Z,2829
2018-08-12T07:56:31.057Z,3105
2018-08-12T07:57:31.143Z,3138
2018-08-12T07:58:31.175Z,3183
2018-08-12T07:59:31.137Z,3020
2018-08-12T08:00:31.057Z,3048
2018-08-12T08:01:31.172Z,2784
2018-08-12T08:02:31.109Z,2925
2018-08-12T08:03:31.180Z,2739
2018-08-12T08:04:31.142Z,2615
2018-08-12T08:05:31.085Z,2446
2018-08-12T08:06:31.157Z,2587
2018-08-12T08:07:31.064Z,2750
2018-08-12T08:08:31.087Z,2801
2018-08-12T08:09:31.123Z,3020
2018-08-12T08:10:31.051Z,3088
2018-08-12T08:11:31.179Z,3031
2018-08-12T08:12:31.125Z,2767
2018-08-12T08:13:31.181Z,2683
2018-08-12T08:14:31.092Z,2441
2018-08-12T08:15:31.095Z,2581
2018-08-12T08:16:31.199Z,2930
2018-08-12T08:17:31.193Z,2812
2018-08-12T08:18:31.138Z,2958
2018-08-12T08:19:31.194Z,3465
2018-08-12T08:20:31.123Z,3453
2018-08-12T08:21:31.197Z,3515
2018-08-12T08:22:31.124Z,3515
2018-08-12T08:23:31.125Z,3521
2018-08-12T08:24:31.197Z,3465
2018-08-12T08:25:31.256Z,3481
2018-08-12T08:26:31.157Z,3678
2018-08-12T08:27:31.141Z,3673
2018-08-12T08:28:31.140Z,3493
2018-08-12T08:29:31.139Z,3571
2018-08-12T08:30:31.155Z,3470
2018-08-12T08:31:31.166Z,3352
2018-08-12T08:32:31.116Z,3690
2018-08-12T08:33:31.190Z,3830
2018-08-12T08:34:31.169Z,3853
2018-08-12T08:35:31.144Z,3830
2018-08-12T08:36:31.094Z,3667
2018-08-12T08:37:31.065Z,3841
2018-08-12T08:38:31.145Z,3864
2018-08-12T08:39:31.146Z,3864
2018-08-12T08:40:31.152Z,3847
2018-08-12T08:41:31.154Z,3836
2018-08-12T08:42:31.187Z,3830
2018-08-12T08:43:31.096Z,3858
2018-08-12T08:44:31.151Z,3886
2018-08-12T08:45:31.164Z,3892
2018-08-12T08:46:31.182Z,3892
2018-08-12T08:47:31.185Z,3886
2018-08-12T08:48:31.156Z,3915
2018-08-12T08:49:31.183Z,3926
2018-08-12T08:50:31.165Z,3971
2018-08-12T08:51:31.187Z,3988
2018-08-12T08:52:31.157Z,4083
2018-08-12T08:53:31.144Z,4089
2018-08-12T08:54:31.142Z,4134
2018-08-12T08:55:31.239Z,4156
2018-08-12T08:56:31.260Z,4162
2018-08-12T08:57:31.148Z,4128
2018-08-12T08:58:31.223Z,4117
2018-08-12T08:59:31.155Z,4066
2018-08-12T09:00:31.223Z,4021
2018-08-12T09:01:31.230Z,4016
2018-08-12T09:02:31.225Z,4005
2018-08-12T09:03:31.158Z,4038
2018-08-12T09:04:31.239Z,3988
2018-08-12T09:05:31.231Z,3982
2018-08-12T09:06:31.132Z,4005
2018-08-12T09:07:31.182Z,4038
2018-08-12T09:08:31.527Z,4111
2018-08-12T09:09:31.192Z,4168
2018-08-12T09:10:31.184Z,4218
2018-08-12T09:11:31.138Z,4258
2018-08-12T09:12:31.101Z,4286
2018-08-12T09:13:31.137Z,4275
2018-08-12T09:14:31.263Z,4224
2018-08-12T09:15:31.158Z,4162
2018-08-12T09:16:31.159Z,4111
2018-08-12T09:17:31.235Z,4128
2018-08-12T09:18:31.236Z,4201
2018-08-12T09:19:31.167Z,4224
2018-08-12T09:20:31.235Z,4190
2018-08-12T09:21:31.168Z,4095
2018-08-12T09:22:31.241Z,3943
2018-08-12T09:23:31.189Z,3836
2018-08-12T09:24:31.243Z,3830
2018-08-12T09:25:31.181Z,3853
2018-08-12T09:26:31.251Z,3825
2018-08-12T09:27:31.208Z,3926
2018-08-12T09:28:31.171Z,4016
2018-08-12T09:29:31.170Z,4083
2018-08-12T09:30:31.245Z,4179
2018-08-12T09:31:31.244Z,4246
2018-08-12T09:32:31.171Z,4331
2018-08-12T09:33:31.247Z,4353
2018-08-12T09:34:31.176Z,4370
2018-08-12T09:35:31.295Z,4426
2018-08-12T09:36:31.190Z,4426
2018-08-12T09:37:31.107Z,4494
2018-08-12T09:38:31.155Z,4500
2018-08-12T09:39:31.215Z,4455
2018-08-12T09:40:31.179Z,4466
2018-08-12T09:41:31.152Z,4545
2018-08-12T09:42:31.185Z,4573
2018-08-12T09:43:31.214Z,4601
2018-08-12T09:44:31.176Z,4646
2018-08-12T09:45:31.227Z,4691
2018-08-12T09:46:31.163Z,4736
2018-08-12T09:47:31.163Z,4618
2018-08-12T09:48:31.215Z,4691
2018-08-12T09:49:31.126Z,4696
2018-08-12T09:50:31.216Z,4708
2018-08-12T09:51:31.314Z,4601
2018-08-12T09:52:31.235Z,4432
2018-08-12T09:53:31.222Z,4556
2018-08-12T09:54:31.186Z,4522
2018-08-12T09:55:31.160Z,4657
2018-08-12T09:56:31.165Z,4573
2018-08-12T09:57:31.289Z,4623
2018-08-12T09:58:31.228Z,4685
2018-08-12T09:59:31.137Z,4674
2018-08-12T10:00:31.168Z,4702
2018-08-12T10:01:31.172Z,4691
2018-08-12T10:02:31.124Z,4719
2018-08-12T10:03:31.217Z,4635
2018-08-12T10:04:31.228Z,4573
2018-08-12T10:05:31.225Z,4623
2018-08-12T10:06:31.102Z,4657
2018-08-12T10:07:31.279Z,4629
2018-08-12T10:08:31.213Z,4798
2018-08-12T10:09:31.214Z,4860
2018-08-12T10:10:31.212Z,4837
2018-08-12T10:11:31.160Z,4809
2018-08-12T10:12:31.214Z,4775
2018-08-12T10:13:31.213Z,4786
2018-08-12T10:14:31.106Z,4820
2018-08-12T10:15:31.146Z,4860
2018-08-12T10:16:31.263Z,4899
2018-08-12T10:17:31.234Z,4854
2018-08-12T10:18:31.160Z,4910
2018-08-12T10:19:31.255Z,4950
2018-08-12T10:20:31.228Z,4938
2018-08-12T10:21:31.211Z,4989
2018-08-12T10:22:31.202Z,4944
2018-08-12T10:23:31.238Z,4831
2018-08-12T10:24:31.146Z,4781
2018-08-12T10:25:31.153Z,4876
2018-08-12T10:26:31.229Z,4837
2018-08-12T10:27:31.230Z,4803
2018-08-12T10:28:31.176Z,4938
2018-08-12T10:29:31.314Z,4944
2018-08-12T10:30:31.249Z,5051
2018-08-12T10:31:31.234Z,5101
2018-08-12T10:32:31.219Z,5040
2018-08-12T10:33:31.157Z,5062
2018-08-12T10:34:31.131Z,5107
2018-08-12T10:35:31.217Z,5062
2018-08-12T10:36:31.294Z,5118
2018-08-12T10:37:31.225Z,5135
2018-08-12T10:38:31.292Z,5124
2018-08-12T10:39:31.225Z,5135
2018-08-12T10:40:31.294Z,5135
2018-08-12T10:41:31.228Z,5163
2018-08-12T10:42:31.296Z,5141
2018-08-12T10:43:31.228Z,4966
2018-08-12T10:44:31.362Z,4966
2018-08-12T10:45:31.298Z,4871
2018-08-12T10:46:31.206Z,4865
2018-08-12T10:47:31.237Z,4781
2018-08-12T10:48:31.205Z,4640
2018-08-12T10:49:31.110Z,4831
2018-08-12T10:50:31.118Z,4500
2018-08-12T10:51:31.162Z,3960
2018-08-12T10:52:31.119Z,3937
2018-08-12T10:53:31.193Z,4348
2018-08-12T10:54:31.181Z,4488
2018-08-12T10:55:31.232Z,4432
2018-08-12T10:56:31.248Z,4432
2018-08-12T10:57:31.245Z,4404
2018-08-12T10:58:31.156Z,4432
2018-08-12T10:59:31.328Z,4455
2018-08-12T11:00:31.248Z,4764
2018-08-12T11:01:31.141Z,4860
2018-08-12T11:02:31.251Z,4685
2018-08-12T11:03:31.252Z,4854
2018-08-12T11:04:31.139Z,4831
2018-08-12T11:05:31.251Z,4944
2018-08-12T11:06:31.299Z,4775
2018-08-12T11:07:31.322Z,4713
2018-08-12T11:08:31.281Z,4477
2018-08-12T11:09:31.275Z,4651
2018-08-12T11:10:31.220Z,4680
2018-08-12T11:11:31.200Z,4741
2018-08-12T11:12:31.320Z,4764
2018-08-12T11:13:31.280Z,4680
2018-08-12T11:14:31.219Z,4511
2018-08-12T11:15:31.221Z,4966
2018-08-12T11:16:31.297Z,4798
2018-08-12T11:17:31.286Z,4635
2018-08-12T11:18:31.307Z,4696
2018-08-12T11:19:31.287Z,4770
2018-08-12T11:20:31.243Z,4623
2018-08-12T11:21:31.288Z,4803
2018-08-12T11:22:31.219Z,5023
2018-08-12T11:23:31.218Z,4691
2018-08-12T11:24:31.287Z,4781
2018-08-12T11:26:31.313Z,5163
2018-08-12T11:27:31.233Z,4905
2018-08-12T11:28:31.326Z,4831
2018-08-12T11:29:31.271Z,4854
2018-08-12T11:30:31.228Z,4646
2018-08-12T11:31:31.276Z,4230
2018-08-12T11:32:31.293Z,4393
2018-08-12T11:33:31.295Z,4713
2018-08-12T11:34:31.276Z,4899
2018-08-12T11:35:31.296Z,4815
2018-08-12T11:36:31.257Z,4224
2018-08-12T11:37:31.336Z,4421
2018-08-12T11:38:31.264Z,4494
2018-08-12T11:39:31.265Z,4725
2018-08-12T11:40:31.336Z,4691
2018-08-12T11:41:31.269Z,4606
2018-08-12T11:42:31.341Z,4910
2018-08-12T11:43:31.276Z,4876
2018-08-12T11:44:31.341Z,4854
2018-08-12T11:45:31.268Z,4713
2018-08-12T11:46:31.223Z,4995
2018-08-12T11:47:31.310Z,4753
2018-08-12T11:48:31.247Z,4336
2018-08-12T11:49:31.299Z,4393
2018-08-12T11:50:31.302Z,4359
2018-08-12T11:51:31.272Z,4606
2018-08-12T11:52:31.272Z,4533
2018-08-12T11:53:31.249Z,4584
2018-08-12T11:54:31.308Z,4899
2018-08-12T11:55:31.227Z,5124
2018-08-12T11:56:31.347Z,5214
2018-08-12T11:57:31.348Z,5214
2018-08-12T11:58:31.349Z,5146
2018-08-12T11:59:31.232Z,5146
2018-08-12T12:00:31.280Z,4449
2018-08-12T12:01:31.350Z,3813
2018-08-12T12:02:31.422Z,3965
2018-08-12T12:03:31.357Z,5079
2018-08-12T12:04:31.413Z,4393
2018-08-12T12:05:31.353Z,5000
2018-08-12T12:06:31.306Z,4730
2018-08-12T12:07:31.195Z,4033
2018-08-12T12:08:31.209Z,2806
2018-08-12T12:09:31.185Z,4410
2018-08-12T12:10:31.249Z,4781
2018-08-12T12:11:31.300Z,5017
2018-08-12T12:12:31.302Z,5141
2018-08-12T12:13:31.214Z,5225
2018-08-12T12:15:31.254Z,5118
2018-08-12T12:16:31.270Z,5068
2018-08-12T12:17:31.302Z,4528
2018-08-12T12:18:31.341Z,4747
2018-08-12T12:19:31.225Z,4550
2018-08-12T12:20:31.259Z,4786
2018-08-12T12:21:31.331Z,4719
2018-08-12T12:22:31.221Z,2047
2018-08-12T12:23:31.322Z,1929
2018-08-12T12:24:31.269Z,2216
2018-08-12T12:25:31.246Z,2098
2018-08-12T12:26:31.370Z,1963
2018-08-12T12:27:31.370Z,1755
2018-08-12T12:28:31.370Z,1665
2018-08-12T12:29:31.301Z,1715
2018-08-12T12:30:31.371Z,4966
2018-08-12T12:31:31.303Z,4966
2018-08-12T12:32:31.305Z,4713
2018-08-12T12:34:31.300Z,4860
2018-08-12T12:35:31.427Z,4860
2018-08-12T12:36:31.307Z,4725
2018-08-12T12:37:31.255Z,4618
2018-08-12T12:38:31.287Z,4528
2018-08-12T12:39:31.309Z,4550
2018-08-12T12:40:31.388Z,4421
2018-08-12T12:41:31.380Z,4410
2018-08-12T12:42:31.307Z,4325
2018-08-12T12:43:31.382Z,4353
2018-08-12T12:44:31.380Z,4308
2018-08-12T12:45:31.305Z,4325
2018-08-12T12:46:31.382Z,4359
2018-08-12T12:47:31.316Z,4522
2018-08-12T12:48:31.387Z,4618
2018-08-12T12:49:31.314Z,4584
2018-08-12T12:50:31.322Z,4455
2018-08-12T12:51:31.386Z,4713
2018-08-12T12:52:31.337Z,4685
2018-08-12T12:53:31.325Z,4635
2018-08-12T12:54:31.389Z,4533
2018-08-12T12:55:31.322Z,4438
2018-08-12T12:56:31.430Z,4415
2018-08-12T12:57:31.392Z,4297
2018-08-12T12:58:31.321Z,4173
2018-08-12T12:59:31.395Z,4117
2018-08-12T13:00:31.349Z,4432
2018-08-12T13:01:31.401Z,4483
2018-08-12T13:02:31.321Z,4404
2018-08-12T13:03:31.394Z,4089
2018-08-12T13:04:31.324Z,3830
2018-08-12T13:05:31.394Z,4156
2018-08-12T13:06:31.324Z,4106
2018-08-12T13:07:31.398Z,4179
2018-08-12T13:08:31.329Z,4269
2018-08-12T13:09:31.396Z,4308
2018-08-12T13:10:31.331Z,4185
2018-08-12T13:11:31.399Z,4376
2018-08-12T13:12:31.358Z,4365
2018-08-12T13:13:31.403Z,4359
2018-08-12T13:14:31.329Z,4291
2018-08-12T13:15:31.401Z,4230
2018-08-12T13:16:31.337Z,4218
2018-08-12T13:17:31.404Z,4134
2018-08-12T13:18:31.329Z,4010
2018-08-12T13:19:31.402Z,4016
2018-08-12T13:20:31.334Z,4078
2018-08-12T13:21:31.406Z,4044
2018-08-12T13:22:31.338Z,4061
2018-08-12T13:23:31.410Z,4038
2018-08-12T13:24:31.406Z,4005
2018-08-12T13:25:31.347Z,3892
2018-08-12T13:26:31.361Z,3971
2018-08-12T13:27:31.414Z,3960
2018-08-12T13:28:31.568Z,3960
2018-08-12T13:29:31.414Z,3976
2018-08-12T13:30:31.352Z,3898
2018-08-12T13:31:31.413Z,3802
2018-08-12T13:32:31.347Z,3729
2018-08-12T13:33:31.418Z,3515
2018-08-12T13:34:31.348Z,3526
2018-08-12T13:35:31.346Z,3273
2018-08-12T13:36:31.416Z,3723
2018-08-12T13:37:31.312Z,3763
2018-08-12T13:38:31.396Z,3588
2018-08-12T13:39:31.347Z,3515
2018-08-12T13:40:31.397Z,3892
2018-08-12T13:41:31.278Z,3892
2018-08-12T13:42:31.291Z,3870
2018-08-12T13:43:31.350Z,3577
2018-08-12T13:44:31.310Z,3751
2018-08-12T13:45:31.330Z,3622
2018-08-12T13:46:31.456Z,3521
2018-08-12T13:47:31.333Z,3729
2018-08-12T13:48:31.283Z,3560
2018-08-12T13:49:31.352Z,3555
2018-08-12T13:50:31.383Z,3448